sensor_id;sensor_type;location;lat;lon;timestamp;temperature;humidity
24049;DHT22;12250;50.956;4.746;2023-09-07T00:01:09;18.20;99.90
24049;DHT22;12250;50.956;4.746;2023-09-07T00:03:34;18.10;99.90
24049;DHT22;12250;50.956;4.746;2023-09-07T00:06:01;18.10;99.90
24049;DHT22;12250;50.956;4.746;2023-09-07T00:08:26;18.00;99.90
24049;DHT22;12250;50.956;4.746;2023-09-07T00:10:52;17.90;99.90
24049;DHT22;12250;50.956;4.746;2023-09-07T00:13:17;17.80;99.90
24049;DHT22;12250;50.956;4.746;2023-09-07T00:15:43;17.80;99.90
24049;DHT22;12250;50.956;4.746;2023-09-07T00:18:09;17.70;99.90
24049;DHT22;12250;50.956;4.746;2023-09-07T00:20:35;17.60;99.90
24049;DHT22;12250;50.956;4.746;2023-09-07T00:23:01;17.50;99.90
24049;DHT22;12250;50.956;4.746;2023-09-07T00:25:27;17.50;99.90
24049;DHT22;12250;50.956;4.746;2023-09-07T00:27:53;17.40;99.90
24049;DHT22;12250;50.956;4.746;2023-09-07T00:30:18;17.30;99.90
24049;DHT22;12250;50.956;4.746;2023-09-07T00:32:44;17.20;99.90
24049;DHT22;12250;50.956;4.746;2023-09-07T00:35:10;17.20;99.90
24049;DHT22;12250;50.956;4.746;2023-09-07T00:37:37;17.10;99.90
24049;DHT22;12250;50.956;4.746;2023-09-07T00:40:04;17.10;99.90
24049;DHT22;12250;50.956;4.746;2023-09-07T00:42:34;17.00;99.90
24049;DHT22;12250;50.956;4.746;2023-09-07T00:45:00;17.00;99.90
24049;DHT22;12250;50.956;4.746;2023-09-07T00:47:25;17.00;99.90
24049;DHT22;12250;50.956;4.746;2023-09-07T00:49:51;16.90;99.90
24049;DHT22;12250;50.956;4.746;2023-09-07T00:52:17;16.90;99.90
24049;DHT22;12250;50.956;4.746;2023-09-07T00:54:44;16.80;99.90
24049;DHT22;12250;50.956;4.746;2023-09-07T00:57:10;16.80;99.90
24049;DHT22;12250;50.956;4.746;2023-09-07T00:59:36;16.80;99.90
24049;DHT22;12250;50.956;4.746;2023-09-07T01:02:01;16.70;99.90
24049;DHT22;12250;50.956;4.746;2023-09-07T01:04:28;16.60;99.90
24049;DHT22;12250;50.956;4.746;2023-09-07T01:07:03;16.60;99.90
24049;DHT22;12250;50.956;4.746;2023-09-07T01:09:32;16.50;99.90
24049;DHT22;12250;50.956;4.746;2023-09-07T01:12:00;16.50;99.90
24049;DHT22;12250;50.956;4.746;2023-09-07T01:14:25;16.50;99.90
24049;DHT22;12250;50.956;4.746;2023-09-07T01:16:51;16.40;99.90
24049;DHT22;12250;50.956;4.746;2023-09-07T01:19:17;16.40;99.90
24049;DHT22;12250;50.956;4.746;2023-09-07T01:21:43;16.30;99.90
24049;DHT22;12250;50.956;4.746;2023-09-07T01:24:09;16.30;99.90
24049;DHT22;12250;50.956;4.746;2023-09-07T01:26:36;16.30;99.90
24049;DHT22;12250;50.956;4.746;2023-09-07T01:29:05;16.30;99.90
24049;DHT22;12250;50.956;4.746;2023-09-07T01:31:37;16.20;99.90
24049;DHT22;12250;50.956;4.746;2023-09-07T01:34:04;16.20;99.90
24049;DHT22;12250;50.956;4.746;2023-09-07T01:36:30;16.20;99.90
24049;DHT22;12250;50.956;4.746;2023-09-07T01:38:56;16.10;99.90
24049;DHT22;12250;50.956;4.746;2023-09-07T01:41:21;16.10;99.90
24049;DHT22;12250;50.956;4.746;2023-09-07T01:43:47;16.10;99.90
24049;DHT22;12250;50.956;4.746;2023-09-07T01:46:13;16.00;99.90
24049;DHT22;12250;50.956;4.746;2023-09-07T01:48:39;16.00;99.90
24049;DHT22;12250;50.956;4.746;2023-09-07T01:51:04;15.90;99.90
24049;DHT22;12250;50.956;4.746;2023-09-07T01:53:30;15.80;99.90
24049;DHT22;12250;50.956;4.746;2023-09-07T01:55:56;15.80;99.90
24049;DHT22;12250;50.956;4.746;2023-09-07T01:58:22;15.70;99.90
24049;DHT22;12250;50.956;4.746;2023-09-07T02:00:49;15.70;99.90
24049;DHT22;12250;50.956;4.746;2023-09-07T02:03:15;15.60;99.90
24049;DHT22;12250;50.956;4.746;2023-09-07T02:05:41;15.60;99.90
24049;DHT22;12250;50.956;4.746;2023-09-07T02:08:06;15.60;99.90
24049;DHT22;12250;50.956;4.746;2023-09-07T02:10:33;15.50;99.90
24049;DHT22;12250;50.956;4.746;2023-09-07T02:13:00;15.50;99.90
24049;DHT22;12250;50.956;4.746;2023-09-07T02:15:26;15.50;99.90
24049;DHT22;12250;50.956;4.746;2023-09-07T02:17:51;15.50;99.90
24049;DHT22;12250;50.956;4.746;2023-09-07T02:20:18;15.50;99.90
24049;DHT22;12250;50.956;4.746;2023-09-07T02:22:45;15.40;99.90
24049;DHT22;12250;50.956;4.746;2023-09-07T02:25:11;15.40;99.90
24049;DHT22;12250;50.956;4.746;2023-09-07T02:27:37;15.40;99.90
24049;DHT22;12250;50.956;4.746;2023-09-07T02:30:04;15.40;99.90
24049;DHT22;12250;50.956;4.746;2023-09-07T02:32:31;15.40;99.90
24049;DHT22;12250;50.956;4.746;2023-09-07T02:34:57;15.30;99.90
24049;DHT22;12250;50.956;4.746;2023-09-07T02:37:23;15.30;99.90
24049;DHT22;12250;50.956;4.746;2023-09-07T02:39:49;15.30;99.90
24049;DHT22;12250;50.956;4.746;2023-09-07T02:42:14;15.20;99.90
24049;DHT22;12250;50.956;4.746;2023-09-07T02:44:40;15.20;99.90
24049;DHT22;12250;50.956;4.746;2023-09-07T02:47:06;15.10;99.90
24049;DHT22;12250;50.956;4.746;2023-09-07T02:49:31;15.10;99.90
24049;DHT22;12250;50.956;4.746;2023-09-07T02:51:57;15.10;99.90
24049;DHT22;12250;50.956;4.746;2023-09-07T02:54:23;15.10;99.90
24049;DHT22;12250;50.956;4.746;2023-09-07T02:56:49;15.10;99.90
24049;DHT22;12250;50.956;4.746;2023-09-07T02:59:15;15.00;99.90
24049;DHT22;12250;50.956;4.746;2023-09-07T03:01:40;15.00;99.90
24049;DHT22;12250;50.956;4.746;2023-09-07T03:04:06;15.10;99.90
24049;DHT22;12250;50.956;4.746;2023-09-07T03:06:33;15.00;99.90
24049;DHT22;12250;50.956;4.746;2023-09-07T03:08:59;15.10;99.90
24049;DHT22;12250;50.956;4.746;2023-09-07T03:11:25;15.00;99.90
24049;DHT22;12250;50.956;4.746;2023-09-07T03:13:51;15.00;99.90
24049;DHT22;12250;50.956;4.746;2023-09-07T03:16:18;15.00;99.90
24049;DHT22;12250;50.956;4.746;2023-09-07T03:18:43;15.00;99.90
24049;DHT22;12250;50.956;4.746;2023-09-07T03:21:09;15.00;99.90
24049;DHT22;12250;50.956;4.746;2023-09-07T03:23:35;15.00;99.90
24049;DHT22;12250;50.956;4.746;2023-09-07T03:26:01;15.00;99.90
24049;DHT22;12250;50.956;4.746;2023-09-07T03:28:26;14.90;99.90
24049;DHT22;12250;50.956;4.746;2023-09-07T03:30:54;14.90;99.90
24049;DHT22;12250;50.956;4.746;2023-09-07T03:33:19;14.90;99.90
24049;DHT22;12250;50.956;4.746;2023-09-07T03:35:45;14.80;99.90
24049;DHT22;12250;50.956;4.746;2023-09-07T03:38:11;14.80;99.90
24049;DHT22;12250;50.956;4.746;2023-09-07T03:40:36;14.80;99.90
24049;DHT22;12250;50.956;4.746;2023-09-07T03:43:02;14.70;99.90
24049;DHT22;12250;50.956;4.746;2023-09-07T03:45:28;14.60;99.90
24049;DHT22;12250;50.956;4.746;2023-09-07T03:47:53;14.60;99.90
24049;DHT22;12250;50.956;4.746;2023-09-07T03:50:19;14.50;99.90
24049;DHT22;12250;50.956;4.746;2023-09-07T03:52:45;14.50;99.90
24049;DHT22;12250;50.956;4.746;2023-09-07T03:55:11;14.50;99.90
24049;DHT22;12250;50.956;4.746;2023-09-07T03:57:37;14.50;99.90
24049;DHT22;12250;50.956;4.746;2023-09-07T04:00:03;14.60;99.90
24049;DHT22;12250;50.956;4.746;2023-09-07T04:02:33;14.50;99.90
24049;DHT22;12250;50.956;4.746;2023-09-07T04:04:58;14.60;99.90
24049;DHT22;12250;50.956;4.746;2023-09-07T04:07:27;14.50;99.90
24049;DHT22;12250;50.956;4.746;2023-09-07T04:09:52;14.50;99.90
24049;DHT22;12250;50.956;4.746;2023-09-07T04:12:18;14.50;99.90
24049;DHT22;12250;50.956;4.746;2023-09-07T04:14:44;14.40;99.90
24049;DHT22;12250;50.956;4.746;2023-09-07T04:17:10;14.40;99.90
24049;DHT22;12250;50.956;4.746;2023-09-07T04:19:36;14.40;99.90
24049;DHT22;12250;50.956;4.746;2023-09-07T04:22:02;14.40;99.90
24049;DHT22;12250;50.956;4.746;2023-09-07T04:24:28;14.40;99.90
24049;DHT22;12250;50.956;4.746;2023-09-07T04:26:58;14.40;99.90
24049;DHT22;12250;50.956;4.746;2023-09-07T04:29:24;14.40;99.90
24049;DHT22;12250;50.956;4.746;2023-09-07T04:31:50;14.40;99.90
24049;DHT22;12250;50.956;4.746;2023-09-07T04:34:15;14.30;99.90
24049;DHT22;12250;50.956;4.746;2023-09-07T04:36:41;14.30;99.90
24049;DHT22;12250;50.956;4.746;2023-09-07T04:39:07;14.30;99.90
24049;DHT22;12250;50.956;4.746;2023-09-07T04:41:33;14.20;99.90
24049;DHT22;12250;50.956;4.746;2023-09-07T04:43:58;14.20;99.90
24049;DHT22;12250;50.956;4.746;2023-09-07T04:46:24;14.10;99.90
24049;DHT22;12250;50.956;4.746;2023-09-07T04:48:50;14.10;99.90
24049;DHT22;12250;50.956;4.746;2023-09-07T04:51:15;14.10;99.90
24049;DHT22;12250;50.956;4.746;2023-09-07T04:53:42;14.20;99.90
24049;DHT22;12250;50.956;4.746;2023-09-07T04:56:08;14.20;99.90
24049;DHT22;12250;50.956;4.746;2023-09-07T04:58:34;14.20;99.90
24049;DHT22;12250;50.956;4.746;2023-09-07T05:01:07;14.30;99.90
24049;DHT22;12250;50.956;4.746;2023-09-07T05:03:36;14.30;99.90
24049;DHT22;12250;50.956;4.746;2023-09-07T05:06:03;14.30;99.90
24049;DHT22;12250;50.956;4.746;2023-09-07T05:08:29;14.30;99.90
24049;DHT22;12250;50.956;4.746;2023-09-07T05:10:56;14.40;99.90
24049;DHT22;12250;50.956;4.746;2023-09-07T05:13:23;14.40;99.90
24049;DHT22;12250;50.956;4.746;2023-09-07T05:15:50;14.50;99.90
24049;DHT22;12250;50.956;4.746;2023-09-07T05:18:17;14.50;99.90
24049;DHT22;12250;50.956;4.746;2023-09-07T05:20:43;14.50;99.90
24049;DHT22;12250;50.956;4.746;2023-09-07T05:23:14;14.50;99.90
24049;DHT22;12250;50.956;4.746;2023-09-07T05:25:51;14.60;99.90
24049;DHT22;12250;50.956;4.746;2023-09-07T05:28:21;14.60;99.90
24049;DHT22;12250;50.956;4.746;2023-09-07T05:30:48;14.60;99.90
24049;DHT22;12250;50.956;4.746;2023-09-07T05:33:15;14.70;99.90
24049;DHT22;12250;50.956;4.746;2023-09-07T05:35:41;14.70;99.90
24049;DHT22;12250;50.956;4.746;2023-09-07T05:38:07;14.60;99.90
24049;DHT22;12250;50.956;4.746;2023-09-07T05:40:37;14.70;99.90
24049;DHT22;12250;50.956;4.746;2023-09-07T05:43:03;14.70;99.90
24049;DHT22;12250;50.956;4.746;2023-09-07T05:45:30;14.70;99.90
24049;DHT22;12250;50.956;4.746;2023-09-07T05:47:57;14.70;99.90
24049;DHT22;12250;50.956;4.746;2023-09-07T05:50:23;14.80;99.90
24049;DHT22;12250;50.956;4.746;2023-09-07T05:52:49;14.80;99.90
24049;DHT22;12250;50.956;4.746;2023-09-07T05:55:14;14.80;99.90
24049;DHT22;12250;50.956;4.746;2023-09-07T05:57:40;14.90;99.90
24049;DHT22;12250;50.956;4.746;2023-09-07T06:00:06;14.90;99.90
24049;DHT22;12250;50.956;4.746;2023-09-07T06:02:32;15.00;99.90
24049;DHT22;12250;50.956;4.746;2023-09-07T06:04:58;15.10;99.90
24049;DHT22;12250;50.956;4.746;2023-09-07T06:07:24;15.10;99.90
24049;DHT22;12250;50.956;4.746;2023-09-07T06:09:49;15.20;99.90
24049;DHT22;12250;50.956;4.746;2023-09-07T06:12:15;15.20;99.90
24049;DHT22;12250;50.956;4.746;2023-09-07T06:14:41;15.30;99.90
24049;DHT22;12250;50.956;4.746;2023-09-07T06:17:06;15.40;99.90
24049;DHT22;12250;50.956;4.746;2023-09-07T06:19:32;15.50;99.90
24049;DHT22;12250;50.956;4.746;2023-09-07T06:21:58;15.60;99.90
24049;DHT22;12250;50.956;4.746;2023-09-07T06:24:24;15.70;99.90
24049;DHT22;12250;50.956;4.746;2023-09-07T06:26:49;15.70;99.90
24049;DHT22;12250;50.956;4.746;2023-09-07T06:29:15;15.80;99.90
24049;DHT22;12250;50.956;4.746;2023-09-07T06:31:41;15.90;99.90
24049;DHT22;12250;50.956;4.746;2023-09-07T06:34:06;16.00;99.90
24049;DHT22;12250;50.956;4.746;2023-09-07T06:36:32;16.10;99.90
24049;DHT22;12250;50.956;4.746;2023-09-07T06:38:58;16.10;99.90
24049;DHT22;12250;50.956;4.746;2023-09-07T06:41:24;16.30;99.90
24049;DHT22;12250;50.956;4.746;2023-09-07T06:43:50;16.40;99.90
24049;DHT22;12250;50.956;4.746;2023-09-07T06:46:16;16.50;99.90
24049;DHT22;12250;50.956;4.746;2023-09-07T06:48:41;16.60;99.90
24049;DHT22;12250;50.956;4.746;2023-09-07T06:51:07;16.70;99.90
24049;DHT22;12250;50.956;4.746;2023-09-07T06:53:35;16.90;99.90
24049;DHT22;12250;50.956;4.746;2023-09-07T06:56:01;17.00;99.90
24049;DHT22;12250;50.956;4.746;2023-09-07T06:58:28;17.10;99.90
24049;DHT22;12250;50.956;4.746;2023-09-07T07:00:58;17.20;99.90
24049;DHT22;12250;50.956;4.746;2023-09-07T07:03:28;17.40;99.90
24049;DHT22;12250;50.956;4.746;2023-09-07T07:05:55;17.50;99.90
24049;DHT22;12250;50.956;4.746;2023-09-07T07:08:22;17.60;99.90
24049;DHT22;12250;50.956;4.746;2023-09-07T07:10:49;17.70;99.90
24049;DHT22;12250;50.956;4.746;2023-09-07T07:13:14;17.80;99.90
24049;DHT22;12250;50.956;4.746;2023-09-07T07:15:40;18.00;99.90
24049;DHT22;12250;50.956;4.746;2023-09-07T07:18:06;18.10;99.90
24049;DHT22;12250;50.956;4.746;2023-09-07T07:20:36;18.30;99.90
24049;DHT22;12250;50.956;4.746;2023-09-07T07:23:02;18.50;99.90
24049;DHT22;12250;50.956;4.746;2023-09-07T07:25:27;18.60;99.90
24049;DHT22;12250;50.956;4.746;2023-09-07T07:27:53;18.80;99.90
24049;DHT22;12250;50.956;4.746;2023-09-07T07:30:19;18.90;99.90
24049;DHT22;12250;50.956;4.746;2023-09-07T07:32:45;19.00;99.90
24049;DHT22;12250;50.956;4.746;2023-09-07T07:35:10;19.10;99.90
24049;DHT22;12250;50.956;4.746;2023-09-07T07:37:36;19.30;99.90
24049;DHT22;12250;50.956;4.746;2023-09-07T07:40:02;19.50;99.90
24049;DHT22;12250;50.956;4.746;2023-09-07T07:42:28;20.20;99.90
24049;DHT22;12250;50.956;4.746;2023-09-07T07:44:53;20.90;99.90
24049;DHT22;12250;50.956;4.746;2023-09-07T07:47:19;21.10;99.90
24049;DHT22;12250;50.956;4.746;2023-09-07T07:49:45;21.00;99.90
24049;DHT22;12250;50.956;4.746;2023-09-07T07:52:10;21.00;99.90
24049;DHT22;12250;50.956;4.746;2023-09-07T07:54:36;20.90;99.90
24049;DHT22;12250;50.956;4.746;2023-09-07T07:57:02;20.80;99.90
24049;DHT22;12250;50.956;4.746;2023-09-07T07:59:28;21.10;99.90
24049;DHT22;12250;50.956;4.746;2023-09-07T08:01:54;22.60;99.90
24049;DHT22;12250;50.956;4.746;2023-09-07T08:04:19;25.60;99.90
24049;DHT22;12250;50.956;4.746;2023-09-07T08:06:45;29.70;99.90
24049;DHT22;12250;50.956;4.746;2023-09-07T08:09:12;33.10;92.90
24049;DHT22;12250;50.956;4.746;2023-09-07T08:11:38;35.70;79.70
24049;DHT22;12250;50.956;4.746;2023-09-07T08:14:05;37.70;67.10
24049;DHT22;12250;50.956;4.746;2023-09-07T08:16:30;39.20;59.40
24049;DHT22;12250;50.956;4.746;2023-09-07T08:18:56;40.60;53.10
24049;DHT22;12250;50.956;4.746;2023-09-07T08:21:22;41.60;49.90
24049;DHT22;12250;50.956;4.746;2023-09-07T08:23:47;42.40;46.50
24049;DHT22;12250;50.956;4.746;2023-09-07T08:26:13;43.30;44.40
24049;DHT22;12250;50.956;4.746;2023-09-07T08:28:40;43.90;43.00
24049;DHT22;12250;50.956;4.746;2023-09-07T08:31:06;44.50;41.50
24049;DHT22;12250;50.956;4.746;2023-09-07T08:33:32;44.90;40.10
24049;DHT22;12250;50.956;4.746;2023-09-07T08:36:01;45.20;38.80
24049;DHT22;12250;50.956;4.746;2023-09-07T08:38:27;45.70;37.30
24049;DHT22;12250;50.956;4.746;2023-09-07T08:40:54;46.00;36.50
24049;DHT22;12250;50.956;4.746;2023-09-07T08:43:23;46.60;35.70
24049;DHT22;12250;50.956;4.746;2023-09-07T08:46:01;46.80;34.70
24049;DHT22;12250;50.956;4.746;2023-09-07T08:48:30;46.70;34.10
24049;DHT22;12250;50.956;4.746;2023-09-07T08:50:56;47.10;34.70
24049;DHT22;12250;50.956;4.746;2023-09-07T08:53:23;47.30;33.20
24049;DHT22;12250;50.956;4.746;2023-09-07T08:55:50;47.50;32.10
24049;DHT22;12250;50.956;4.746;2023-09-07T08:58:15;47.60;32.50
24049;DHT22;12250;50.956;4.746;2023-09-07T09:00:42;48.00;31.90
24049;DHT22;12250;50.956;4.746;2023-09-07T09:03:09;47.90;31.30
24049;DHT22;12250;50.956;4.746;2023-09-07T09:05:39;47.90;31.10
24049;DHT22;12250;50.956;4.746;2023-09-07T09:08:06;48.00;30.30
24049;DHT22;12250;50.956;4.746;2023-09-07T09:10:32;47.70;30.80
24049;DHT22;12250;50.956;4.746;2023-09-07T09:12:58;47.50;30.30
24049;DHT22;12250;50.956;4.746;2023-09-07T09:15:27;47.00;30.50
24049;DHT22;12250;50.956;4.746;2023-09-07T09:17:53;46.80;31.20
24049;DHT22;12250;50.956;4.746;2023-09-07T09:20:22;47.00;30.50
24049;DHT22;12250;50.956;4.746;2023-09-07T09:22:55;46.80;30.40
24049;DHT22;12250;50.956;4.746;2023-09-07T09:25:22;46.90;30.80
24049;DHT22;12250;50.956;4.746;2023-09-07T09:27:48;47.30;30.80
24049;DHT22;12250;50.956;4.746;2023-09-07T09:30:14;47.80;30.30
24049;DHT22;12250;50.956;4.746;2023-09-07T09:32:46;48.10;30.00
24049;DHT22;12250;50.956;4.746;2023-09-07T09:35:12;48.00;29.60
24049;DHT22;12250;50.956;4.746;2023-09-07T09:37:48;48.20;29.50
24049;DHT22;12250;50.956;4.746;2023-09-07T09:40:17;48.40;29.70
24049;DHT22;12250;50.956;4.746;2023-09-07T09:42:44;48.40;29.20
24049;DHT22;12250;50.956;4.746;2023-09-07T09:45:11;48.40;29.20
24049;DHT22;12250;50.956;4.746;2023-09-07T09:47:42;48.60;28.30
24049;DHT22;12250;50.956;4.746;2023-09-07T09:50:10;48.20;29.10
24049;DHT22;12250;50.956;4.746;2023-09-07T09:52:36;48.30;29.70
24049;DHT22;12250;50.956;4.746;2023-09-07T09:55:04;48.30;28.70
24049;DHT22;12250;50.956;4.746;2023-09-07T09:57:32;47.80;29.10
24049;DHT22;12250;50.956;4.746;2023-09-07T10:00:00;47.80;29.50
24049;DHT22;12250;50.956;4.746;2023-09-07T10:02:36;47.90;29.00
24049;DHT22;12250;50.956;4.746;2023-09-07T10:05:03;47.90;28.20
24049;DHT22;12250;50.956;4.746;2023-09-07T10:07:48;48.10;28.50
24049;DHT22;12250;50.956;4.746;2023-09-07T10:10:14;48.10;28.60
24049;DHT22;12250;50.956;4.746;2023-09-07T10:12:45;47.90;29.00
24049;DHT22;12250;50.956;4.746;2023-09-07T10:15:26;48.00;27.60
24049;DHT22;12250;50.956;4.746;2023-09-07T10:23:40;47.60;28.90
24049;DHT22;12250;50.956;4.746;2023-09-07T10:26:11;47.80;28.40
24049;DHT22;12250;50.956;4.746;2023-09-07T10:28:37;47.60;27.50
24049;DHT22;12250;50.956;4.746;2023-09-07T10:33:41;47.20;28.80
24049;DHT22;12250;50.956;4.746;2023-09-07T10:36:07;47.20;28.30
24049;DHT22;12250;50.956;4.746;2023-09-07T10:38:35;47.20;28.30
24049;DHT22;12250;50.956;4.746;2023-09-07T10:41:02;46.90;28.20
24049;DHT22;12250;50.956;4.746;2023-09-07T10:43:29;46.80;27.90
24049;DHT22;12250;50.956;4.746;2023-09-07T10:45:56;46.20;29.20
24049;DHT22;12250;50.956;4.746;2023-09-07T10:48:26;46.00;29.10
24049;DHT22;12250;50.956;4.746;2023-09-07T10:50:52;45.80;28.90
24049;DHT22;12250;50.956;4.746;2023-09-07T10:53:31;45.60;29.70
24049;DHT22;12250;50.956;4.746;2023-09-07T10:55:59;45.00;29.70
24049;DHT22;12250;50.956;4.746;2023-09-07T10:58:32;44.40;30.20
24049;DHT22;12250;50.956;4.746;2023-09-07T11:00:58;43.60;30.90
24049;DHT22;12250;50.956;4.746;2023-09-07T11:03:25;43.30;31.00
24049;DHT22;12250;50.956;4.746;2023-09-07T11:06:04;42.50;33.40
24049;DHT22;12250;50.956;4.746;2023-09-07T11:08:30;41.30;32.50
24049;DHT22;12250;50.956;4.746;2023-09-07T11:10:56;40.40;33.60
24049;DHT22;12250;50.956;4.746;2023-09-07T11:13:25;39.80;36.50
24049;DHT22;12250;50.956;4.746;2023-09-07T11:15:55;39.30;37.20
24049;DHT22;12250;50.956;4.746;2023-09-07T11:18:22;38.60;37.60
24049;DHT22;12250;50.956;4.746;2023-09-07T11:20:49;37.60;39.50
24049;DHT22;12250;50.956;4.746;2023-09-07T11:23:15;36.90;40.70
24049;DHT22;12250;50.956;4.746;2023-09-07T11:25:41;35.80;41.20
24049;DHT22;12250;50.956;4.746;2023-09-07T11:28:08;35.10;43.40
24049;DHT22;12250;50.956;4.746;2023-09-07T11:30:35;34.50;43.70
24049;DHT22;12250;50.956;4.746;2023-09-07T11:33:05;34.00;46.90
24049;DHT22;12250;50.956;4.746;2023-09-07T11:35:31;33.30;46.20
24049;DHT22;12250;50.956;4.746;2023-09-07T11:37:59;32.70;48.60
24049;DHT22;12250;50.956;4.746;2023-09-07T11:40:25;32.40;49.20
24049;DHT22;12250;50.956;4.746;2023-09-07T11:42:50;32.00;51.30
24049;DHT22;12250;50.956;4.746;2023-09-07T11:45:16;31.90;51.80
24049;DHT22;12250;50.956;4.746;2023-09-07T11:47:43;31.80;52.40
24049;DHT22;12250;50.956;4.746;2023-09-07T11:50:09;31.80;52.80
24049;DHT22;12250;50.956;4.746;2023-09-07T11:52:35;31.60;52.50
24049;DHT22;12250;50.956;4.746;2023-09-07T11:55:01;31.50;51.60
24049;DHT22;12250;50.956;4.746;2023-09-07T11:57:29;31.30;54.40
24049;DHT22;12250;50.956;4.746;2023-09-07T11:59:55;31.20;55.30
24049;DHT22;12250;50.956;4.746;2023-09-07T12:02:20;31.20;55.30
24049;DHT22;12250;50.956;4.746;2023-09-07T12:04:47;31.20;56.00
24049;DHT22;12250;50.956;4.746;2023-09-07T12:07:14;31.40;56.20
24049;DHT22;12250;50.956;4.746;2023-09-07T12:09:39;31.30;56.50
24049;DHT22;12250;50.956;4.746;2023-09-07T12:12:05;31.40;54.50
24049;DHT22;12250;50.956;4.746;2023-09-07T12:14:31;31.40;54.00
24049;DHT22;12250;50.956;4.746;2023-09-07T12:16:57;31.40;54.70
24049;DHT22;12250;50.956;4.746;2023-09-07T12:19:23;31.50;54.20
24049;DHT22;12250;50.956;4.746;2023-09-07T12:21:48;31.50;54.50
24049;DHT22;12250;50.956;4.746;2023-09-07T12:24:14;31.50;55.30
24049;DHT22;12250;50.956;4.746;2023-09-07T12:26:40;31.60;53.80
24049;DHT22;12250;50.956;4.746;2023-09-07T12:29:05;31.60;54.90
24049;DHT22;12250;50.956;4.746;2023-09-07T12:31:33;31.70;55.70
24049;DHT22;12250;50.956;4.746;2023-09-07T12:33:58;31.60;53.80
24049;DHT22;12250;50.956;4.746;2023-09-07T12:36:24;31.60;54.70
24049;DHT22;12250;50.956;4.746;2023-09-07T12:38:50;31.70;54.80
24049;DHT22;12250;50.956;4.746;2023-09-07T12:41:15;31.80;54.50
24049;DHT22;12250;50.956;4.746;2023-09-07T12:43:41;31.70;54.30
24049;DHT22;12250;50.956;4.746;2023-09-07T12:46:08;31.60;56.40
24049;DHT22;12250;50.956;4.746;2023-09-07T12:48:35;31.60;54.40
24049;DHT22;12250;50.956;4.746;2023-09-07T12:51:00;31.70;54.40
24049;DHT22;12250;50.956;4.746;2023-09-07T12:53:26;31.70;53.80
24049;DHT22;12250;50.956;4.746;2023-09-07T12:55:55;31.70;55.40
24049;DHT22;12250;50.956;4.746;2023-09-07T12:58:21;31.70;54.40
24049;DHT22;12250;50.956;4.746;2023-09-07T13:00:47;31.60;53.60
24049;DHT22;12250;50.956;4.746;2023-09-07T13:03:16;31.60;53.30
24049;DHT22;12250;50.956;4.746;2023-09-07T13:05:43;31.70;54.40
24049;DHT22;12250;50.956;4.746;2023-09-07T13:08:09;31.60;54.60
24049;DHT22;12250;50.956;4.746;2023-09-07T13:10:35;31.60;54.30
24049;DHT22;12250;50.956;4.746;2023-09-07T13:13:00;31.70;55.60
24049;DHT22;12250;50.956;4.746;2023-09-07T13:15:26;31.70;56.10
24049;DHT22;12250;50.956;4.746;2023-09-07T13:17:52;31.90;55.30
24049;DHT22;12250;50.956;4.746;2023-09-07T13:20:17;32.00;55.00
24049;DHT22;12250;50.956;4.746;2023-09-07T13:22:45;31.80;55.20
24049;DHT22;12250;50.956;4.746;2023-09-07T13:25:12;31.80;55.50
24049;DHT22;12250;50.956;4.746;2023-09-07T13:27:38;31.90;53.70
24049;DHT22;12250;50.956;4.746;2023-09-07T13:30:05;31.70;54.50
24049;DHT22;12250;50.956;4.746;2023-09-07T13:32:31;31.50;56.20
24049;DHT22;12250;50.956;4.746;2023-09-07T13:34:58;31.60;57.50
24049;DHT22;12250;50.956;4.746;2023-09-07T13:37:23;31.60;56.60
24049;DHT22;12250;50.956;4.746;2023-09-07T13:39:49;31.70;57.70
24049;DHT22;12250;50.956;4.746;2023-09-07T13:42:15;31.70;57.60
24049;DHT22;12250;50.956;4.746;2023-09-07T13:44:41;31.80;57.10
24049;DHT22;12250;50.956;4.746;2023-09-07T13:47:06;31.80;56.80
24049;DHT22;12250;50.956;4.746;2023-09-07T13:49:34;31.90;56.60
24049;DHT22;12250;50.956;4.746;2023-09-07T13:51:59;32.00;56.10
24049;DHT22;12250;50.956;4.746;2023-09-07T13:54:25;32.10;57.20
24049;DHT22;12250;50.956;4.746;2023-09-07T13:56:51;32.20;55.20
24049;DHT22;12250;50.956;4.746;2023-09-07T13:59:16;32.00;54.30
24049;DHT22;12250;50.956;4.746;2023-09-07T14:01:42;31.90;56.00
24049;DHT22;12250;50.956;4.746;2023-09-07T14:04:08;31.90;57.00
24049;DHT22;12250;50.956;4.746;2023-09-07T14:06:33;32.00;56.80
24049;DHT22;12250;50.956;4.746;2023-09-07T14:08:59;32.00;56.10
24049;DHT22;12250;50.956;4.746;2023-09-07T14:11:24;32.10;57.40
24049;DHT22;12250;50.956;4.746;2023-09-07T14:13:50;32.20;57.30
24049;DHT22;12250;50.956;4.746;2023-09-07T14:16:18;32.30;56.20
24049;DHT22;12250;50.956;4.746;2023-09-07T14:18:45;32.40;55.90
24049;DHT22;12250;50.956;4.746;2023-09-07T14:21:10;32.40;55.40
24049;DHT22;12250;50.956;4.746;2023-09-07T14:23:36;32.40;57.50
24049;DHT22;12250;50.956;4.746;2023-09-07T14:26:02;32.40;55.80
24049;DHT22;12250;50.956;4.746;2023-09-07T14:28:28;32.40;56.20
24049;DHT22;12250;50.956;4.746;2023-09-07T14:30:54;32.40;56.50
24049;DHT22;12250;50.956;4.746;2023-09-07T14:33:20;32.50;57.00
24049;DHT22;12250;50.956;4.746;2023-09-07T14:35:46;32.50;56.40
24049;DHT22;12250;50.956;4.746;2023-09-07T14:38:12;32.50;54.70
24049;DHT22;12250;50.956;4.746;2023-09-07T14:40:38;32.40;55.00
24049;DHT22;12250;50.956;4.746;2023-09-07T14:43:04;32.40;57.60
24049;DHT22;12250;50.956;4.746;2023-09-07T14:45:31;32.40;57.20
24049;DHT22;12250;50.956;4.746;2023-09-07T14:47:57;32.50;57.20
24049;DHT22;12250;50.956;4.746;2023-09-07T14:50:22;32.60;57.50
24049;DHT22;12250;50.956;4.746;2023-09-07T14:52:48;32.60;57.90
24049;DHT22;12250;50.956;4.746;2023-09-07T14:55:14;32.70;58.20
24049;DHT22;12250;50.956;4.746;2023-09-07T14:57:40;32.70;57.70
24049;DHT22;12250;50.956;4.746;2023-09-07T15:00:07;32.60;56.30
24049;DHT22;12250;50.956;4.746;2023-09-07T15:02:33;32.60;56.10
24049;DHT22;12250;50.956;4.746;2023-09-07T15:04:59;32.60;57.70
24049;DHT22;12250;50.956;4.746;2023-09-07T15:07:25;32.60;58.30
24049;DHT22;12250;50.956;4.746;2023-09-07T15:09:50;32.60;57.80
24049;DHT22;12250;50.956;4.746;2023-09-07T15:12:16;32.60;56.60
24049;DHT22;12250;50.956;4.746;2023-09-07T15:14:42;32.50;58.00
24049;DHT22;12250;50.956;4.746;2023-09-07T15:17:10;32.50;58.70
24049;DHT22;12250;50.956;4.746;2023-09-07T15:19:36;32.50;57.80
24049;DHT22;12250;50.956;4.746;2023-09-07T15:22:01;32.50;57.80
24049;DHT22;12250;50.956;4.746;2023-09-07T15:24:27;32.50;57.20
24049;DHT22;12250;50.956;4.746;2023-09-07T15:26:53;32.50;57.80
24049;DHT22;12250;50.956;4.746;2023-09-07T15:29:18;32.50;58.40
24049;DHT22;12250;50.956;4.746;2023-09-07T15:31:44;32.50;58.00
24049;DHT22;12250;50.956;4.746;2023-09-07T15:34:10;32.60;58.30